New Ellenton, South Carolina
Current Conditions -  °F | °C
As of 11:15 AM on Thursday 29 Jan 2015 (Local Time) from KAIK Reporting Station
Clear Clear  
Wind Chill: 46°   Ceiling: Unl
Heat Index: 48°   Visibility: 10mi
Dew Point: 27°   Wind: 6mph
Humidity: 43%   Direction: 180°S
Pressure: 30.37"   Gusts: NA
Location:  33.42°N, 81.69°W
Report Text: KAIK 291615Z AUTO 18005KT 10SM CLR 09/M03 A3037 RMK AO2 PNO
Loading
Personal Weather Stations






























Interactive Weather Map New forecast layout! Learn more

10-Day Weather Forecast

Advertisements
Track Severe Weather on mobile